Accueil
METAR-TAF:

METAR-TAF

Aéroports :

Aéroport international Sardar Vallabhbhai Patel

Ahmedabad, Inde

latitude: 23-04N, longitude: 072-38E, altitude: 55 m

Observation

Le bulletin a été fait il y a 27 minutes, à 23:30 UTC
Vent 2 kt de nord
Température 17°C
Humidité 77%
Pression 1012 hPa
Visibilité: 3500 m
brume sèche

METAR: VAAH 262330Z 01002KT 3500 HZ NSC 17/13 Q1012 NOSIG

Heure: 05:27 (23:57 UTC)

Prévision

Le bulletin a été fait il y a 3 heures et 57 minutes, à 20:00 UTC
Prévision valable du 26 à 21 UTC au 27 à 06 UTC
Vent 3 kt de nord
Visibilité: 4000 m
fumée
Evoluant progressivement
du 27 à 01 UTC au 27 à 03 UTC
Vent 3 kt de nord/nord-est
Visibilité: 1500 m
brume sèche
Evoluant progressivement
du 27 à 04 UTC au 27 à 06 UTC
Vent 3 kt de est
Visibilité: 3500 m
fumée

TAF: VAAH 262000Z 2621/2706 35003KT 4000 FU NSC BECMG 2701/2703 03003KT 1500 HZ BECMG 2704/2706 08003KT 3500 FU

Observations et prévisions météorologiques de plus de 4000 aéroports (messages METAR et TAF).

Les stations disponibles sont représentées par des disques jaunes et rouges sur la carte.

Passer la souris dessus pour voir le nom de la station.

Cliquer dessus pour voir les observations et prévisions météorologiques.

Pour changer de carte: cliquez sur les boutons verts avec une croix noire pour zoomer, sur le bouton vert avec un tiret pour effectuer un zoom arrière, ou sur les flèches vertes pour les cartes adjacentes.


METAR-TAF: